Time;durP1;ratioP1;P1;durP2;ratioP2;P2;SDS_P1;SDS_P2;PMS_P1;PMS_P2;Temp;Humidity;BMP_temperature;BMP_pressure;BME280_temperature;BME280_humidity;BME280_pressure;Samples;Min_cycle;Max_cycle;Signal;HPM_P1;HPM_P2
2023/03/11 00:00:52;;;;;;;5.85;0.77;;;1.20;99.90;;;;;;7397464;19;19938;-75
2023/03/11 00:03:24;;;;;;;6.55;1.10;;;1.10;99.90;;;;;;7396890;19;19911;-75
2023/03/11 00:05:54;;;;;;;4.28;0.57;;;0.70;99.90;;;;;;7399519;19;20249;-75
2023/03/11 00:08:25;;;;;;;3.92;1.00;;;0.50;99.90;;;;;;7397147;19;19931;-75
2023/03/11 00:10:57;;;;;;;2.78;0.88;;;-0.40;99.90;;;;;;7399543;19;19922;-75
2023/03/11 00:13:26;;;;;;;7.53;0.70;;;-0.10;99.90;;;;;;7397001;19;19925;-75
2023/03/11 00:15:58;;;;;;;4.40;0.50;;;0.20;99.90;;;;;;7396301;19;20374;-75
2023/03/11 00:18:30;;;;;;;2.30;0.63;;;0.50;99.90;;;;;;7396152;19;19923;-75
2023/03/11 00:21:00;;;;;;;6.65;0.95;;;0.60;99.90;;;;;;7396399;19;19915;-75
2023/03/11 00:26:15;;;;;;;4.00;0.50;;;1.30;99.90;;;;;;7432463;19;20683;-58
2023/03/11 00:28:47;;;;;;;5.82;1.23;;;1.40;99.90;;;;;;7434065;19;20360;-58
2023/03/11 00:31:16;;;;;;;4.85;0.98;;;1.00;99.90;;;;;;7434737;19;19918;-58
2023/03/11 00:33:45;;;;;;;4.10;0.82;;;;;;;;;;7434350;19;19922;-58
2023/03/11 00:36:24;;;;;;;1.13;0.47;;;1.00;99.90;;;;;;7434289;19;19915;-58
2023/03/11 00:38:53;;;;;;;3.75;0.82;;;0.70;99.90;;;;;;7435123;19;19925;-58
2023/03/11 00:41:25;;;;;;;5.32;0.85;;;0.80;99.90;;;;;;7436807;19;19974;-58
2023/03/11 00:43:54;;;;;;;3.33;0.57;;;1.10;99.90;;;;;;7433848;19;19925;-58
2023/03/11 00:46:23;;;;;;;4.72;0.68;;;1.50;99.90;;;;;;7433538;19;19921;-59
2023/03/11 00:48:52;;;;;;;3.60;0.70;;;1.20;99.90;;;;;;7434122;19;19925;-59
2023/03/11 00:51:21;;;;;;;4.93;0.50;;;1.10;99.90;;;;;;7433528;19;19994;-59
2023/03/11 00:53:50;;;;;;;4.88;0.90;;;0.00;99.90;;;;;;7433442;19;20322;-59
2023/03/11 00:56:19;;;;;;;3.30;0.50;;;1.00;99.90;;;;;;7433975;19;19922;-59
2023/03/11 00:58:50;;;;;;;2.47;0.40;;;0.40;99.90;;;;;;7437085;19;19952;-58
2023/03/11 01:01:21;;;;;;;4.28;1.10;;;0.90;99.90;;;;;;7434060;19;20337;-59
2023/03/11 01:03:50;;;;;;;2.70;0.77;;;0.50;99.90;;;;;;7433737;19;19918;-58
2023/03/11 01:06:19;;;;;;;3.63;0.35;;;0.40;99.90;;;;;;7430747;19;20002;-58
2023/03/11 01:08:48;;;;;;;2.42;0.30;;;1.30;99.90;;;;;;7434620;19;19918;-58
2023/03/11 01:11:18;;;;;;;2.22;0.47;;;;;;;;;;7431881;19;19926;-59
2023/03/11 01:13:47;;;;;;;2.33;0.43;;;;;;;;;;7433847;19;20013;-59
2023/03/11 01:16:20;;;;;;;1.63;0.40;;;-0.20;99.90;;;;;;7437119;19;19925;-58
2023/03/11 01:18:49;;;;;;;2.92;0.73;;;0.10;99.90;;;;;;7433066;19;20381;-58
2023/03/11 01:21:19;;;;;;;3.78;0.55;;;-0.30;99.90;;;;;;7431041;19;19929;-59
2023/03/11 01:23:48;;;;;;;0.77;0.20;;;0.10;99.90;;;;;;7432602;19;19925;-59
2023/03/11 01:26:19;;;;;;;0.82;0.40;;;0.10;99.90;;;;;;7430426;19;20280;-59
2023/03/11 01:28:49;;;;;;;3.10;0.30;;;-0.10;99.90;;;;;;7433098;19;19920;-59
2023/03/11 01:31:21;;;;;;;3.63;0.55;;;0.40;99.90;;;;;;7433775;19;19951;-59
2023/03/11 01:33:50;;;;;;;1.15;0.40;;;-0.50;99.90;;;;;;7432455;19;19914;-59
2023/03/11 01:36:19;;;;;;;2.25;0.30;;;1.30;99.90;;;;;;7419162;19;20201;-59
2023/03/11 01:38:51;;;;;;;4.40;1.10;;;-1.00;99.90;;;;;;7403863;19;19930;-59
2023/03/11 01:41:21;;;;;;;2.47;0.60;;;0.20;99.90;;;;;;7408543;19;19919;-59
2023/03/11 01:43:53;;;;;;;4.43;0.47;;;0.10;99.90;;;;;;7403747;19;19967;-59
2023/03/11 01:46:27;;;;;;;1.48;0.30;;;1.00;99.90;;;;;;7398874;19;19932;-59
2023/03/11 01:48:58;;;;;;;1.15;0.38;;;0.30;99.90;;;;;;7405671;19;19982;-59
2023/03/11 01:51:30;;;;;;;1.05;0.38;;;1.10;99.90;;;;;;7403703;19;20264;-59
2023/03/11 01:54:05;;;;;;;3.80;0.52;;;-0.30;99.90;;;;;;7403691;19;19926;-59
2023/03/11 01:56:35;;;;;;;6.95;2.72;;;0.30;99.90;;;;;;7404021;19;20602;-59
2023/03/11 01:59:08;;;;;;;2.05;1.42;;;1.00;99.90;;;;;;7405843;19;19922;-59
2023/03/11 02:01:50;;;;;;;2.17;0.93;;;0.70;99.90;;;;;;7403178;19;19918;-59
2023/03/11 02:04:21;;;;;;;7.28;2.30;;;-0.40;99.90;;;;;;7404114;19;20448;-59
2023/03/11 02:06:58;;;;;;;3.95;1.00;;;0.20;99.90;;;;;;7407207;19;19922;-59
2023/03/11 02:09:28;;;;;;;8.25;0.80;;;1.30;99.90;;;;;;7404261;19;19922;-59
2023/03/11 02:11:57;;;;;;;4.05;0.80;;;0.80;99.90;;;;;;7401182;19;20326;-58
2023/03/11 02:14:30;;;;;;;2.15;0.38;;;1.00;99.90;;;;;;7402655;19;19923;-58
2023/03/11 02:17:03;;;;;;;1.05;0.40;;;1.00;99.90;;;;;;7403145;19;19982;-59
2023/03/11 02:19:43;;;;;;;0.88;0.38;;;0.80;99.90;;;;;;7402361;19;19918;-58
2023/03/11 02:22:13;;;;;;;2.13;0.45;;;0.30;99.90;;;;;;7401706;19;19923;-58
2023/03/11 02:24:48;;;;;;;3.95;0.93;;;0.50;99.90;;;;;;7401466;19;19919;-59
2023/03/11 02:27:23;;;;;;;1.15;0.63;;;1.10;99.90;;;;;;7400624;19;19923;-58
2023/03/11 02:29:56;;;;;;;3.15;0.38;;;0.60;99.90;;;;;;7402534;19;19933;-58
2023/03/11 02:32:25;;;;;;;3.10;0.73;;;0.80;99.90;;;;;;7402406;19;20344;-59
2023/03/11 02:34:54;;;;;;;3.17;0.77;;;0.60;99.90;;;;;;7402873;19;20247;-58
2023/03/11 02:37:24;;;;;;;1.02;0.93;;;0.70;99.90;;;;;;7402882;19;20272;-59
2023/03/11 02:39:56;;;;;;;3.15;0.75;;;0.50;99.90;;;;;;7406084;19;19918;-58
2023/03/11 02:42:29;;;;;;;;;;;-0.70;99.90;;;;;;7405144;19;19915;-58
2023/03/11 02:45:01;;;;;;;1.30;0.40;;;0.60;99.90;;;;;;7401313;19;19936;-58
2023/03/11 02:47:31;;;;;;;3.30;0.65;;;0.40;99.90;;;;;;7400580;19;20307;-59
2023/03/11 02:50:01;;;;;;;2.47;1.20;;;0.70;99.90;;;;;;7401840;19;20287;-59
2023/03/11 02:52:33;;;;;;;2.55;0.28;;;0.40;99.90;;;;;;7401937;19;19910;-58
2023/03/11 02:55:07;;;;;;;2.03;0.63;;;1.10;99.90;;;;;;7401922;19;19915;-59
2023/03/11 02:57:39;;;;;;;3.00;0.40;;;0.30;99.90;;;;;;7404149;19;19918;-58
2023/03/11 03:00:13;;;;;;;2.78;0.40;;;0.80;99.90;;;;;;7405243;19;19938;-59
2023/03/11 03:02:43;;;;;;;1.75;0.30;;;0.90;99.90;;;;;;7401657;19;19978;-58
2023/03/11 03:05:12;;;;;;;2.25;0.45;;;-0.40;99.90;;;;;;7403312;19;19926;-58
2023/03/11 03:07:42;;;;;;;1.38;0.20;;;-0.50;99.90;;;;;;7403440;19;20269;-59
2023/03/11 03:10:14;;;;;;;3.90;0.75;;;0.30;99.90;;;;;;7400898;19;19982;-58
2023/03/11 03:12:46;;;;;;;3.28;0.45;;;0.20;99.90;;;;;;7401582;19;20338;-59
2023/03/11 03:15:16;;;;;;;3.20;0.30;;;-0.10;99.90;;;;;;7405290;19;20532;-59
2023/03/11 03:17:46;;;;;;;2.55;0.57;;;0.20;99.90;;;;;;7401305;19;20309;-59
2023/03/11 03:20:16;;;;;;;2.22;0.47;;;1.00;99.90;;;;;;7401179;19;20144;-59
2023/03/11 03:22:45;;;;;;;1.27;0.20;;;0.70;99.90;;;;;;7401433;19;19974;-59
2023/03/11 03:25:14;;;;;;;1.30;0.30;;;-0.50;99.90;;;;;;7399549;19;19922;-59
2023/03/11 03:27:46;;;;;;;2.67;0.28;;;0.10;99.90;;;;;;7400940;19;20391;-58
2023/03/11 03:30:16;;;;;;;1.05;0.82;;;0.60;99.90;;;;;;7401393;19;20329;-60
2023/03/11 03:32:46;;;;;;;5.68;0.73;;;0.70;99.90;;;;;;7400735;19;19915;-59
2023/03/11 03:35:15;;;;;;;1.60;0.40;;;0.50;99.90;;;;;;7400898;19;19911;-59
2023/03/11 03:37:47;;;;;;;2.03;0.70;;;0.50;99.90;;;;;;7401720;19;19929;-59
2023/03/11 03:40:16;;;;;;;1.88;0.30;;;-0.30;99.90;;;;;;7400654;19;19974;-60
2023/03/11 03:42:48;;;;;;;1.30;0.43;;;-0.10;99.90;;;;;;7400361;19;19922;-59
2023/03/11 03:45:17;;;;;;;2.05;0.43;;;0.40;99.90;;;;;;7397851;19;20325;-60
2023/03/11 03:47:46;;;;;;;1.50;0.32;;;-0.70;99.90;;;;;;7402162;19;19914;-60
2023/03/11 03:50:15;;;;;;;0.57;0.10;;;-0.40;99.90;;;;;;7400342;19;19924;-60
2023/03/11 03:52:45;;;;;;;2.72;0.32;;;0.50;99.90;;;;;;7400541;19;19938;-60
2023/03/11 03:55:14;;;;;;;1.98;0.30;;;;;;;;;;7399747;19;19914;-60
2023/03/11 03:57:49;;;;;;;2.30;0.50;;;-0.10;99.90;;;;;;7400268;19;19914;-60
2023/03/11 04:00:19;;;;;;;3.20;0.20;;;-0.80;99.90;;;;;;7397373;19;19962;-59
2023/03/11 04:02:48;;;;;;;1.05;0.40;;;0.40;99.90;;;;;;7399966;19;19978;-61
2023/03/11 04:05:17;;;;;;;0.50;0.22;;;0.40;99.90;;;;;;7402193;19;19919;-59
2023/03/11 04:07:46;;;;;;;2.95;0.30;;;-0.50;99.90;;;;;;7400579;19;19922;-59
2023/03/11 04:10:16;;;;;;;3.25;0.35;;;0.10;99.90;;;;;;7404540;19;20333;-60
2023/03/11 04:12:55;;;;;;;3.60;0.30;;;-0.10;99.90;;;;;;7400198;19;19988;-59
2023/03/11 04:15:27;;;;;;;1.17;0.30;;;-0.80;99.90;;;;;;7399399;19;19932;-60
2023/03/11 04:18:05;;;;;;;10.73;0.93;;;-0.70;99.90;;;;;;7399556;19;19915;-60
2023/03/11 04:20:33;;;;;;;;;;;0.00;99.90;;;;;;7401568;19;19925;-60
2023/03/11 04:23:04;;;;;;;2.25;0.50;;;-0.90;99.90;;;;;;7401925;19;19978;-60
2023/03/11 04:25:38;;;;;;;1.98;0.20;;;-0.20;99.90;;;;;;7397335;19;20330;-60
2023/03/11 04:28:10;;;;;;;1.25;0.30;;;0.70;99.90;;;;;;7399477;19;20266;-60
2023/03/11 04:30:43;;;;;;;1.67;0.40;;;-0.30;99.90;;;;;;7398773;19;19935;-59
2023/03/11 04:33:12;;;;;;;4.25;0.52;;;0.00;99.90;;;;;;7397220;19;19914;-59
2023/03/11 04:35:42;;;;;;;2.97;0.63;;;;;;;;;;7400771;19;19922;-59
2023/03/11 04:38:16;;;;;;;1.13;0.30;;;-0.80;99.90;;;;;;7399397;19;19993;-60
2023/03/11 04:40:46;;;;;;;3.40;0.43;;;-0.20;99.90;;;;;;7398799;19;20031;-59
2023/03/11 04:43:19;;;;;;;1.02;0.30;;;0.30;99.90;;;;;;7398283;19;19926;-60
2023/03/11 04:45:53;;;;;;;1.25;0.43;;;0.50;99.90;;;;;;7398071;19;20322;-59
2023/03/11 04:48:23;;;;;;;3.47;0.43;;;-0.80;99.90;;;;;;7399064;19;19911;-59
2023/03/11 04:50:54;;;;;;;0.68;0.38;;;;;;;;;;7398707;19;19926;-60
2023/03/11 04:53:23;;;;;;;1.60;0.38;;;0.20;99.90;;;;;;7398677;19;20433;-59
2023/03/11 04:55:55;;;;;;;3.13;0.30;;;0.20;99.90;;;;;;7399989;19;19986;-60
2023/03/11 04:58:27;;;;;;;2.55;0.45;;;0.40;99.90;;;;;;7398741;19;19914;-59
2023/03/11 05:01:00;;;;;;;0.98;0.30;;;-0.30;99.90;;;;;;7398268;19;19915;-60
2023/03/11 05:03:29;;;;;;;2.90;0.55;;;0.30;99.90;;;;;;7398331;19;20345;-60
2023/03/11 05:05:59;;;;;;;2.25;0.40;;;-1.10;99.90;;;;;;7400958;19;19939;-60
2023/03/11 05:08:28;;;;;;;2.00;0.35;;;-0.30;99.90;;;;;;7399454;19;19929;-59
2023/03/11 05:10:57;;;;;;;2.92;0.20;;;-0.40;99.90;;;;;;7398411;19;19940;-59
2023/03/11 05:13:29;;;;;;;2.78;0.60;;;-1.10;99.90;;;;;;7407852;19;19978;-59
2023/03/11 05:15:58;;;;;;;3.63;0.38;;;-0.80;99.90;;;;;;7404930;19;19932;-59
2023/03/11 05:18:28;;;;;;;1.42;0.22;;;;;;;;;;7404709;19;19934;-60
2023/03/11 05:20:57;;;;;;;3.30;0.45;;;-1.20;99.90;;;;;;7404769;19;19970;-59
2023/03/11 05:23:26;;;;;;;1.40;0.30;;;-1.20;99.90;;;;;;7402851;19;20257;-59
2023/03/11 05:25:55;;;;;;;3.67;0.68;;;0.20;99.90;;;;;;7401680;19;19918;-59
2023/03/11 05:28:24;;;;;;;3.15;0.52;;;0.00;99.90;;;;;;7404937;19;20277;-59
2023/03/11 05:30:57;;;;;;;1.48;0.40;;;-1.20;99.90;;;;;;7408275;19;19958;-59
2023/03/11 05:33:31;;;;;;;2.50;0.63;;;-0.70;99.90;;;;;;7404598;19;19974;-59
2023/03/11 05:36:08;;;;;;;5.47;0.40;;;-0.10;99.90;;;;;;7404764;19;19942;-59
2023/03/11 05:38:38;;;;;;;1.95;0.32;;;-1.00;99.90;;;;;;7404040;19;19966;-59
2023/03/11 05:41:08;;;;;;;1.08;0.40;;;-1.80;99.90;;;;;;7404254;19;20322;-59
2023/03/11 05:43:40;;;;;;;;;;;1.00;99.90;;;;;;7406353;19;19918;-59
2023/03/11 05:46:12;;;;;;;3.22;0.30;;;-1.10;99.90;;;;;;7402962;19;19921;-60
2023/03/11 05:48:53;;;;;;;0.73;0.40;;;-0.90;99.90;;;;;;7403974;19;19922;-59
2023/03/11 05:51:22;;;;;;;1.90;0.35;;;-0.10;99.90;;;;;;7401996;19;19935;-59
2023/03/11 05:53:52;;;;;;;2.80;0.38;;;-0.30;99.90;;;;;;7403382;19;19914;-59
2023/03/11 05:56:24;;;;;;;1.58;0.50;;;-1.00;99.90;;;;;;7403430;19;19919;-59
2023/03/11 05:58:53;;;;;;;0.75;0.40;;;-0.30;99.90;;;;;;7403541;19;19923;-59
2023/03/11 06:01:28;;;;;;;0.77;0.20;;;-0.50;99.90;;;;;;7403289;19;19919;-59
2023/03/11 06:04:00;;;;;;;1.20;0.55;;;;;;;;;;7406656;19;19923;-59
2023/03/11 06:06:31;;;;;;;;;;;-1.10;99.90;;;;;;7404567;19;19922;-59
2023/03/11 06:09:03;;;;;;;4.32;0.57;;;-1.00;99.90;;;;;;7403777;19;20321;-59
2023/03/11 06:11:33;;;;;;;1.95;0.60;;;-0.90;99.90;;;;;;7401745;19;20346;-59
2023/03/11 06:14:02;;;;;;;1.55;0.45;;;;;;;;;;7403128;19;20328;-59
2023/03/11 06:16:33;;;;;;;0.98;0.50;;;-2.10;99.90;;;;;;7400969;19;19925;-59
2023/03/11 06:19:02;;;;;;;2.25;0.60;;;-1.00;99.90;;;;;;7402497;19;19922;-59
2023/03/11 06:21:31;;;;;;;1.30;0.22;;;-1.20;99.90;;;;;;7406436;19;20330;-59
2023/03/11 06:24:00;;;;;;;2.30;0.45;;;-1.90;99.90;;;;;;7402554;19;19930;-59
2023/03/11 06:26:29;;;;;;;3.22;0.75;;;-0.80;99.90;;;;;;7400564;19;19919;-59
2023/03/11 06:28:58;;;;;;;0.55;0.40;;;-0.20;99.90;;;;;;7403183;19;19915;-58
2023/03/11 06:31:30;;;;;;;2.30;0.63;;;-1.70;99.90;;;;;;7402422;19;19925;-58
2023/03/11 06:34:01;;;;;;;0.73;0.73;;;-0.50;99.90;;;;;;7402533;19;19974;-58
2023/03/11 06:36:30;;;;;;;7.20;1.23;;;-1.10;99.90;;;;;;7403107;19;20347;-59
2023/03/11 06:39:00;;;;;;;4.00;0.77;;;-2.10;99.90;;;;;;7406256;19;20273;-58
2023/03/11 06:41:29;;;;;;;1.90;0.60;;;-2.00;99.90;;;;;;7402138;19;19919;-59
2023/03/11 06:44:01;;;;;;;2.47;0.60;;;-0.70;99.90;;;;;;7402015;19;19925;-58
2023/03/11 06:46:30;;;;;;;0.98;0.30;;;-1.90;99.90;;;;;;7400932;19;19922;-58
2023/03/11 06:49:01;;;;;;;1.00;0.43;;;-1.30;99.90;;;;;;7400934;19;19978;-73
2023/03/11 06:51:30;;;;;;;6.70;0.80;;;-2.00;99.90;;;;;;7403021;19;19978;-73
2023/03/11 06:53:59;;;;;;;1.55;0.50;;;-1.70;99.90;;;;;;7401715;19;19910;-73
2023/03/11 06:56:28;;;;;;;4.03;0.52;;;-2.00;99.90;;;;;;7403473;19;19923;-73
2023/03/11 06:58:57;;;;;;;1.58;0.50;;;-1.40;99.90;;;;;;7403350;19;19925;-73
2023/03/11 07:01:27;;;;;;;2.92;0.57;;;-2.00;99.90;;;;;;7403106;19;19929;-73
2023/03/11 07:03:56;;;;;;;3.17;0.60;;;-2.00;99.90;;;;;;7405553;19;19941;-72
2023/03/11 07:06:29;;;;;;;4.10;0.50;;;-0.80;99.90;;;;;;7402659;19;19922;-73
2023/03/11 07:09:04;;;;;;;3.70;0.50;;;-0.60;99.90;;;;;;7404471;19;20510;-73
2023/03/11 07:11:33;;;;;;;3.90;0.93;;;-1.00;99.90;;;;;;7402854;19;19925;-73
2023/03/11 07:14:02;;;;;;;6.32;0.70;;;;;;;;;;7402729;19;20341;-73
2023/03/11 07:16:32;;;;;;;0.98;0.40;;;-1.90;99.90;;;;;;7404987;19;19922;-73
2023/03/11 07:19:02;;;;;;;2.15;0.38;;;-1.90;99.90;;;;;;7403139;19;20357;-73
2023/03/11 07:21:35;;;;;;;2.28;0.50;;;-1.40;99.90;;;;;;7402387;19;19915;-73
2023/03/11 07:24:05;;;;;;;2.05;0.50;;;-0.30;99.90;;;;;;7402995;19;20267;-73
2023/03/11 07:26:36;;;;;;;1.38;0.50;;;-1.40;99.90;;;;;;7402392;19;19982;-73
2023/03/11 07:29:05;;;;;;;2.35;0.80;;;-1.10;99.90;;;;;;7402340;19;19978;-72
2023/03/11 07:31:36;;;;;;;2.05;0.60;;;-1.80;99.90;;;;;;7402808;19;19932;-72
2023/03/11 07:34:10;;;;;;;1.23;0.75;;;-1.70;99.90;;;;;;7401001;19;20276;-72
2023/03/11 07:36:43;;;;;;;4.30;0.47;;;-1.50;99.90;;;;;;7402746;19;19943;-72
2023/03/11 07:39:16;;;;;;;3.47;0.77;;;0.00;99.90;;;;;;7401963;19;20283;-72
2023/03/11 07:41:45;;;;;;;3.10;0.63;;;-1.30;99.90;;;;;;7401816;19;19918;-73
2023/03/11 07:44:16;;;;;;;3.65;0.50;;;-0.40;99.90;;;;;;7401652;19;19922;-72
2023/03/11 07:46:46;;;;;;;3.22;0.63;;;-0.30;99.90;;;;;;7400651;19;19930;-73
2023/03/11 07:49:15;;;;;;;0.80;0.45;;;;;;;;;;7400724;19;20427;-73
2023/03/11 07:51:46;;;;;;;2.50;0.50;;;-1.60;99.90;;;;;;7401666;19;19915;-73
2023/03/11 07:54:15;;;;;;;3.33;0.80;;;-0.30;99.90;;;;;;7400434;19;19946;-72
2023/03/11 07:56:44;;;;;;;1.23;0.55;;;-1.20;99.90;;;;;;7401416;19;20343;-73
2023/03/11 07:59:13;;;;;;;2.38;0.70;;;-1.20;99.90;;;;;;7401889;19;19922;-73
2023/03/11 08:01:45;;;;;;;3.35;1.88;;;0.20;99.90;;;;;;7401392;19;19925;-73
2023/03/11 08:04:16;;;;;;;1.50;0.55;;;-0.50;99.90;;;;;;7401088;19;19939;-73
2023/03/11 08:06:48;;;;;;;2.45;0.52;;;0.30;99.90;;;;;;7401250;19;19919;-73
2023/03/11 08:09:17;;;;;;;1.67;0.50;;;-0.50;99.90;;;;;;7401106;19;20560;-73
2023/03/11 08:11:46;;;;;;;4.60;1.17;;;-0.70;99.90;;;;;;7400916;19;19915;-73
2023/03/11 08:14:15;;;;;;;1.33;0.43;;;;;;;;;;7401112;19;19915;-73
2023/03/11 08:16:44;;;;;;;1.45;0.40;;;;;;;;;;7400216;19;20341;-73
2023/03/11 08:19:14;;;;;;;1.33;0.60;;;0.00;99.90;;;;;;7401249;19;20305;-73
2023/03/11 08:21:43;;;;;;;1.92;0.60;;;-0.70;99.90;;;;;;7401303;19;19925;-73
2023/03/11 08:24:15;;;;;;;2.30;0.55;;;-0.40;99.90;;;;;;7400826;19;19982;-73
2023/03/11 08:26:44;;;;;;;;;;;0.80;99.90;;;;;;7403234;19;19923;-73
2023/03/11 08:29:13;;;;;;;0.75;0.35;;;-0.10;99.90;;;;;;7399593;19;19919;-73
2023/03/11 08:31:43;;;;;;;3.35;0.57;;;0.70;99.90;;;;;;7401034;19;19922;-73
2023/03/11 08:34:13;;;;;;;0.77;0.52;;;-0.60;99.90;;;;;;7400603;19;19929;-74
2023/03/11 08:36:42;;;;;;;3.28;0.60;;;0.80;99.90;;;;;;7400436;19;19922;-73
2023/03/11 08:39:11;;;;;;;1.25;0.55;;;1.00;99.90;;;;;;7400240;19;20320;-73
2023/03/11 08:41:42;;;;;;;3.65;0.60;;;1.00;99.90;;;;;;7400054;19;20355;-73
2023/03/11 08:44:11;;;;;;;4.57;0.70;;;0.70;99.90;;;;;;7400057;19;19930;-73
2023/03/11 08:46:41;;;;;;;4.25;0.57;;;-0.20;99.90;;;;;;7402034;19;19914;-73
2023/03/11 08:49:10;;;;;;;1.52;0.65;;;1.40;99.90;;;;;;7404609;19;19933;-72
2023/03/11 08:51:39;;;;;;;2.45;0.90;;;0.90;99.90;;;;;;7406098;19;19986;-73
2023/03/11 08:54:08;;;;;;;2.45;0.45;;;0.80;99.90;;;;;;7404297;19;19935;-73
2023/03/11 08:56:37;;;;;;;2.97;0.70;;;1.50;99.90;;;;;;7406617;19;19929;-73
2023/03/11 08:59:09;;;;;;;4.65;0.82;;;-0.20;99.90;;;;;;7406154;19;19921;-74
2023/03/11 09:01:38;;;;;;;2.13;0.80;;;1.00;99.90;;;;;;7408076;19;19919;-73
2023/03/11 09:04:07;;;;;;;6.32;1.10;;;1.90;99.90;;;;;;7405790;19;19939;-73
2023/03/11 09:06:36;;;;;;;2.33;0.47;;;0.50;99.90;;;;;;7406154;19;19910;-72
2023/03/11 09:09:05;;;;;;;3.30;0.52;;;0.40;99.90;;;;;;7403499;19;19914;-73
2023/03/11 09:11:36;;;;;;;4.65;0.50;;;0.70;99.90;;;;;;7405673;19;19919;-73
2023/03/11 09:14:07;;;;;;;2.22;0.70;;;0.70;99.90;;;;;;7405289;19;20282;-73
2023/03/11 09:16:36;;;;;;;5.07;1.10;;;0.70;99.90;;;;;;7405188;19;19922;-73
2023/03/11 09:19:06;;;;;;;2.08;0.70;;;2.00;99.90;;;;;;7405600;19;20277;-74
2023/03/11 09:21:35;;;;;;;1.65;0.60;;;0.90;99.90;;;;;;7405497;19;19954;-73
2023/03/11 09:24:05;;;;;;;1.73;0.70;;;1.90;99.90;;;;;;7405509;19;19915;-74
2023/03/11 09:26:35;;;;;;;5.03;1.10;;;1.50;99.90;;;;;;7405557;19;19959;-73
2023/03/11 09:29:04;;;;;;;2.30;0.70;;;1.30;99.90;;;;;;7403237;19;20372;-73
2023/03/11 09:31:37;;;;;;;3.28;1.00;;;1.00;99.90;;;;;;7405174;19;19919;-73
2023/03/11 09:34:07;;;;;;;2.80;0.90;;;1.10;99.90;;;;;;7405114;19;19929;-73
2023/03/11 09:36:36;;;;;;;2.88;0.70;;;1.10;99.90;;;;;;7405092;19;19978;-74
2023/03/11 09:39:05;;;;;;;2.53;0.70;;;0.80;99.90;;;;;;7404856;19;19926;-73
2023/03/11 09:41:43;;;;;;;2.08;1.23;;;2.00;99.90;;;;;;7404889;19;19937;-74
2023/03/11 09:44:21;;;;;;;2.05;0.47;;;1.90;99.90;;;;;;7404793;19;20355;-73
2023/03/11 09:47:28;;;;;;;3.15;1.00;;;1.00;99.90;;;;;;7404244;19;19922;-73
2023/03/11 09:50:15;;;;;;;;;;;1.90;99.90;;;;;;7405632;19;19933;-73
2023/03/11 09:52:48;;;;;;;3.78;0.40;;;1.90;99.90;;;;;;7404151;19;19919;-74
2023/03/11 09:55:36;;;;;;;3.33;0.68;;;1.20;99.90;;;;;;7404525;19;19982;-73
2023/03/11 09:58:13;;;;;;;3.22;0.60;;;2.20;99.90;;;;;;7403781;19;19918;-73
2023/03/11 10:00:42;;;;;;;5.18;0.75;;;1.90;99.90;;;;;;7406575;19;20252;-74
2023/03/11 10:03:28;;;;;;;4.10;1.00;;;1.30;99.90;;;;;;7404577;19;20290;-74
2023/03/11 10:06:04;;;;;;;4.00;0.95;;;2.20;99.90;;;;;;7404298;19;20253;-73
2023/03/11 10:08:39;;;;;;;4.45;0.60;;;3.00;99.90;;;;;;7403203;19;20274;-74
2023/03/11 10:11:20;;;;;;;2.28;1.08;;;2.30;99.90;;;;;;7404141;19;19925;-74
2023/03/11 10:13:58;;;;;;;8.82;1.25;;;1.80;99.90;;;;;;7403717;19;19915;-73
2023/03/11 10:16:37;;;;;;;2.83;1.02;;;1.90;99.90;;;;;;7403765;19;19918;-74
2023/03/11 10:19:17;;;;;;;5.05;1.27;;;2.70;99.90;;;;;;7403912;19;20433;-73
2023/03/11 10:21:54;;;;;;;4.07;1.02;;;3.40;99.90;;;;;;7404157;19;19918;-73
2023/03/11 10:24:45;;;;;;;4.72;1.70;;;1.90;99.90;;;;;;7403856;19;19918;-74
2023/03/11 10:27:19;;;;;;;2.33;0.80;;;2.10;99.90;;;;;;7403671;19;19923;-74
2023/03/11 10:29:56;;;;;;;2.58;0.95;;;2.40;99.90;;;;;;7403343;19;19921;-74
2023/03/11 10:32:30;;;;;;;1.23;0.55;;;3.10;99.90;;;;;;7403458;19;19923;-74
2023/03/11 10:35:08;;;;;;;4.78;0.80;;;3.50;99.90;;;;;;7403088;19;19922;-74
2023/03/11 10:37:42;;;;;;;3.67;1.27;;;3.40;99.90;;;;;;7404573;19;19922;-74
2023/03/11 10:40:24;;;;;;;6.32;0.90;;;3.50;99.90;;;;;;7402928;19;19966;-74
2023/03/11 10:42:55;;;;;;;2.78;0.70;;;2.30;99.90;;;;;;7403361;19;19926;-74
2023/03/11 10:45:25;;;;;;;4.55;0.80;;;2.90;99.90;;;;;;7402737;19;19911;-75
2023/03/11 10:47:53;;;;;;;0.93;0.50;;;3.80;99.90;;;;;;7402633;19;20348;-74
2023/03/11 10:50:25;;;;;;;6.78;0.90;;;2.40;99.90;;;;;;7401596;19;19925;-74
2023/03/11 10:53:09;;;;;;;3.65;0.75;;;3.40;99.90;;;;;;7403052;19;20301;-75
2023/03/11 10:55:47;;;;;;;2.90;0.65;;;4.30;99.90;;;;;;7403103;19;19915;-74
2023/03/11 10:58:19;;;;;;;3.20;0.70;;;3.70;99.90;;;;;;7402965;19;20145;-75
2023/03/11 11:00:48;;;;;;;2.40;0.70;;;2.90;99.90;;;;;;7407129;19;19919;-73
2023/03/11 11:03:25;;;;;;;3.22;1.02;;;4.10;99.90;;;;;;7403061;19;19943;-74
2023/03/11 11:06:05;;;;;;;0.93;0.50;;;3.10;99.90;;;;;;7402532;19;19915;-74
2023/03/11 11:08:35;;;;;;;5.43;0.88;;;3.70;99.90;;;;;;7399899;19;19922;-74
2023/03/11 11:11:06;;;;;;;6.07;0.65;;;2.90;99.90;;;;;;7403057;19;19935;-74
2023/03/11 11:13:36;;;;;;;2.28;0.90;;;4.00;99.90;;;;;;7402695;19;19918;-74
2023/03/11 11:16:07;;;;;;;4.35;0.70;;;3.40;99.90;;;;;;7401970;19;19918;-75
2023/03/11 11:18:44;;;;;;;2.22;0.50;;;4.20;99.90;;;;;;7402343;19;19929;-75
2023/03/11 11:21:17;;;;;;;2.38;0.60;;;4.20;99.90;;;;;;7402683;19;19925;-74
2023/03/11 11:23:50;;;;;;;2.53;0.60;;;3.90;99.90;;;;;;7402120;19;19925;-74
2023/03/11 11:26:22;;;;;;;2.85;0.63;;;3.50;99.90;;;;;;7402097;19;19925;-75
2023/03/11 11:29:06;;;;;;;;;;;4.00;99.90;;;;;;7403503;19;19918;-74
2023/03/11 11:31:35;;;;;;;2.20;0.57;;;3.40;99.90;;;;;;7402175;19;19907;-74
2023/03/11 11:34:05;;;;;;;4.15;0.60;;;4.90;99.90;;;;;;7402138;19;19974;-75
2023/03/11 11:36:39;;;;;;;2.45;0.40;;;4.20;99.90;;;;;;7401927;19;19914;-75
2023/03/11 11:39:17;;;;;;;2.38;0.80;;;4.30;99.90;;;;;;7402333;19;19935;-74
2023/03/11 11:41:47;;;;;;;4.50;0.73;;;4.20;99.90;;;;;;7402017;19;19915;-75
2023/03/11 11:44:21;;;;;;;4.15;0.47;;;4.50;99.90;;;;;;7402287;19;20353;-75
2023/03/11 11:46:57;;;;;;;2.40;0.75;;;4.40;99.90;;;;;;7402054;19;20440;-76
2023/03/11 11:49:30;;;;;;;1.83;0.70;;;4.10;99.90;;;;;;7400485;19;19919;-75
2023/03/11 11:52:08;;;;;;;3.47;0.40;;;5.30;99.90;;;;;;7401903;19;19915;-77
2023/03/11 11:54:41;;;;;;;1.67;0.45;;;4.40;99.90;;;;;;7399585;19;20363;-77
2023/03/11 11:57:15;;;;;;;2.42;0.77;;;4.70;99.90;;;;;;7401297;19;19919;-75
2023/03/11 11:59:45;;;;;;;2.85;0.50;;;4.60;99.90;;;;;;7406100;19;19926;-75
2023/03/11 12:02:29;;;;;;;1.73;0.88;;;5.20;99.90;;;;;;7401488;19;19925;-75
2023/03/11 12:05:09;;;;;;;3.95;0.73;;;5.20;99.90;;;;;;7400523;19;19910;-75
2023/03/11 12:07:56;;;;;;;1.35;0.60;;;4.70;99.90;;;;;;7400714;19;19922;-75
2023/03/11 12:10:30;;;;;;;2.88;0.65;;;4.70;99.90;;;;;;7401136;19;19922;-74
2023/03/11 12:13:31;;;;;;;5.70;0.93;;;5.40;99.90;;;;;;7400559;19;19922;-75
2023/03/11 12:16:05;;;;;;;3.25;0.57;;;5.70;99.90;;;;;;7397736;19;19914;-74
2023/03/11 12:18:38;;;;;;;2.30;0.65;;;5.60;99.90;;;;;;7400765;19;19937;-75
2023/03/11 12:21:22;;;;;;;2.10;0.60;;;5.10;99.90;;;;;;7399837;19;19922;-73
2023/03/11 12:24:07;;;;;;;4.70;0.73;;;4.80;99.90;;;;;;7400782;19;19915;-73
2023/03/11 12:26:40;;;;;;;1.38;0.47;;;5.00;99.90;;;;;;7400753;19;19914;-74
2023/03/11 12:29:15;;;;;;;1.95;0.70;;;5.00;99.90;;;;;;7399585;19;19919;-73
2023/03/11 12:31:45;;;;;;;4.20;1.10;;;5.10;99.90;;;;;;7399651;19;19926;-73
2023/03/11 12:34:18;;;;;;;1.50;0.68;;;5.20;99.90;;;;;;7399469;19;19919;-72
2023/03/11 12:36:49;;;;;;;2.28;0.73;;;5.30;99.90;;;;;;7399888;19;19919;-72
2023/03/11 12:39:27;;;;;;;1.75;0.60;;;5.30;99.90;;;;;;7399744;19;20332;-73
2023/03/11 12:42:17;;;;;;;3.72;1.00;;;5.10;99.90;;;;;;7399510;19;20237;-73
2023/03/11 12:44:47;;;;;;;3.13;0.70;;;5.30;99.90;;;;;;7399117;19;20272;-73
2023/03/11 12:47:27;;;;;;;6.25;1.75;;;5.20;99.90;;;;;;7399218;19;19922;-73
2023/03/11 12:49:57;;;;;;;3.03;0.57;;;5.20;99.90;;;;;;7397789;19;19922;-72
2023/03/11 12:52:33;;;;;;;4.57;0.90;;;5.20;99.90;;;;;;7399064;19;20316;-73
2023/03/11 12:55:32;;;;;;;4.90;0.88;;;5.60;99.90;;;;;;7399035;19;19939;-73
2023/03/11 12:58:18;;;;;;;2.50;0.85;;;5.30;99.90;;;;;;7402322;19;19918;-73
2023/03/11 13:00:58;;;;;;;5.05;1.05;;;5.80;99.90;;;;;;7399177;19;19917;-73
2023/03/11 13:03:51;;;;;;;4.65;1.15;;;5.40;99.90;;;;;;7398777;19;19918;-73
2023/03/11 13:06:39;;;;;;;5.38;0.93;;;6.40;99.90;;;;;;7398427;19;20312;-73
2023/03/11 13:09:16;;;;;;;1.80;0.52;;;6.20;99.90;;;;;;7398023;19;19919;-73
2023/03/11 13:11:50;;;;;;;4.60;0.70;;;6.00;99.90;;;;;;7398416;19;19918;-73
2023/03/11 13:14:32;;;;;;;2.45;0.77;;;6.30;99.90;;;;;;7398010;19;19918;-73
2023/03/11 13:17:25;;;;;;;4.28;1.02;;;6.50;99.90;;;;;;7398545;19;20243;-73
2023/03/11 13:19:56;;;;;;;1.80;0.65;;;5.50;99.90;;;;;;7398411;19;19919;-73
2023/03/11 13:22:54;;;;;;;1.75;0.57;;;6.30;99.90;;;;;;7398974;19;20308;-73
2023/03/11 13:25:37;;;;;;;2.35;0.55;;;6.20;99.90;;;;;;7397310;19;19918;-73
2023/03/11 13:28:34;;;;;;;1.98;0.50;;;5.80;99.90;;;;;;7398637;19;20004;-73
2023/03/11 13:31:28;;;;;;;2.70;0.70;;;5.80;99.90;;;;;;7398332;19;19926;-73